sensor_id;sensor_type;location;lat;lon;timestamp;temperature;humidity
15636;DHT22;7917;50.818;6.972;2023-03-01T00:00:54;-1.90;99.90
15636;DHT22;7917;50.818;6.972;2023-03-01T00:03:21;-1.90;99.90
15636;DHT22;7917;50.818;6.972;2023-03-01T00:05:48;-1.90;99.90
15636;DHT22;7917;50.818;6.972;2023-03-01T00:08:17;-1.90;99.90
15636;DHT22;7917;50.818;6.972;2023-03-01T00:10:44;-1.90;99.90
15636;DHT22;7917;50.818;6.972;2023-03-01T00:13:11;-2.00;99.90
15636;DHT22;7917;50.818;6.972;2023-03-01T00:15:38;-2.00;99.90
15636;DHT22;7917;50.818;6.972;2023-03-01T00:18:05;-2.00;99.90
15636;DHT22;7917;50.818;6.972;2023-03-01T00:20:33;-2.10;99.90
15636;DHT22;7917;50.818;6.972;2023-03-01T00:23:03;-2.10;99.90
15636;DHT22;7917;50.818;6.972;2023-03-01T00:25:30;-2.20;99.90
15636;DHT22;7917;50.818;6.972;2023-03-01T00:27:56;-2.10;99.90
15636;DHT22;7917;50.818;6.972;2023-03-01T00:30:23;-2.10;99.90
15636;DHT22;7917;50.818;6.972;2023-03-01T00:32:49;-2.10;99.90
15636;DHT22;7917;50.818;6.972;2023-03-01T00:35:16;-2.10;99.90
15636;DHT22;7917;50.818;6.972;2023-03-01T00:37:43;-2.10;99.90
15636;DHT22;7917;50.818;6.972;2023-03-01T00:40:10;-2.20;99.90
15636;DHT22;7917;50.818;6.972;2023-03-01T00:42:37;-2.20;99.90
15636;DHT22;7917;50.818;6.972;2023-03-01T00:45:05;-2.20;99.90
15636;DHT22;7917;50.818;6.972;2023-03-01T00:47:33;-2.20;99.90
15636;DHT22;7917;50.818;6.972;2023-03-01T00:49:59;-2.20;99.90
15636;DHT22;7917;50.818;6.972;2023-03-01T00:52:26;-2.30;99.90
15636;DHT22;7917;50.818;6.972;2023-03-01T00:54:55;-2.30;99.90
15636;DHT22;7917;50.818;6.972;2023-03-01T00:57:23;-2.30;99.90
15636;DHT22;7917;50.818;6.972;2023-03-01T00:59:50;-2.20;99.90
15636;DHT22;7917;50.818;6.972;2023-03-01T01:02:18;-2.10;99.90
15636;DHT22;7917;50.818;6.972;2023-03-01T01:04:45;-1.90;99.90
15636;DHT22;7917;50.818;6.972;2023-03-01T01:07:12;-1.90;99.90
15636;DHT22;7917;50.818;6.972;2023-03-01T01:13:01;-1.80;99.90
15636;DHT22;7917;50.818;6.972;2023-03-01T01:15:28;-1.90;99.90
15636;DHT22;7917;50.818;6.972;2023-03-01T01:17:55;-1.90;99.90
15636;DHT22;7917;50.818;6.972;2023-03-01T01:20:21;-1.90;99.90
15636;DHT22;7917;50.818;6.972;2023-03-01T01:22:48;-1.80;99.90
15636;DHT22;7917;50.818;6.972;2023-03-01T01:25:14;-1.80;99.90
15636;DHT22;7917;50.818;6.972;2023-03-01T01:27:41;-1.70;99.90
15636;DHT22;7917;50.818;6.972;2023-03-01T01:30:09;-1.70;99.90
15636;DHT22;7917;50.818;6.972;2023-03-01T01:32:36;-1.70;99.90
15636;DHT22;7917;50.818;6.972;2023-03-01T01:35:04;-1.60;99.90
15636;DHT22;7917;50.818;6.972;2023-03-01T01:37:30;-1.70;99.90
15636;DHT22;7917;50.818;6.972;2023-03-01T01:39:57;-1.80;99.90
15636;DHT22;7917;50.818;6.972;2023-03-01T01:42:24;-1.90;99.90
15636;DHT22;7917;50.818;6.972;2023-03-01T01:45:24;-2.00;99.90
15636;DHT22;7917;50.818;6.972;2023-03-01T01:47:52;-2.00;99.90
15636;DHT22;7917;50.818;6.972;2023-03-01T01:50:21;-2.00;99.90
15636;DHT22;7917;50.818;6.972;2023-03-01T01:52:49;-2.10;99.90
15636;DHT22;7917;50.818;6.972;2023-03-01T01:55:18;-2.20;99.90
15636;DHT22;7917;50.818;6.972;2023-03-01T01:57:50;-2.20;99.90
15636;DHT22;7917;50.818;6.972;2023-03-01T02:00:21;-2.20;99.90
15636;DHT22;7917;50.818;6.972;2023-03-01T02:02:51;-2.00;99.90
15636;DHT22;7917;50.818;6.972;2023-03-01T02:05:26;-1.90;99.90
15636;DHT22;7917;50.818;6.972;2023-03-01T02:07:56;-1.90;99.90
15636;DHT22;7917;50.818;6.972;2023-03-01T02:10:23;-1.90;99.90
15636;DHT22;7917;50.818;6.972;2023-03-01T02:12:53;-2.00;99.90
15636;DHT22;7917;50.818;6.972;2023-03-01T02:15:23;-2.10;99.90
15636;DHT22;7917;50.818;6.972;2023-03-01T02:17:53;-2.10;99.90
15636;DHT22;7917;50.818;6.972;2023-03-01T02:20:23;-2.20;99.90
15636;DHT22;7917;50.818;6.972;2023-03-01T02:22:53;-2.30;99.90
15636;DHT22;7917;50.818;6.972;2023-03-01T02:25:28;-2.40;99.90
15636;DHT22;7917;50.818;6.972;2023-03-01T02:28:01;-2.40;99.90
15636;DHT22;7917;50.818;6.972;2023-03-01T02:30:32;-2.40;99.90
15636;DHT22;7917;50.818;6.972;2023-03-01T02:33:00;-2.40;99.90
15636;DHT22;7917;50.818;6.972;2023-03-01T02:35:36;-2.60;99.90
15636;DHT22;7917;50.818;6.972;2023-03-01T02:38:06;-2.50;99.90
15636;DHT22;7917;50.818;6.972;2023-03-01T02:40:34;-2.50;99.90
15636;DHT22;7917;50.818;6.972;2023-03-01T02:43:04;-2.60;99.90
15636;DHT22;7917;50.818;6.972;2023-03-01T02:45:33;-2.70;99.90
15636;DHT22;7917;50.818;6.972;2023-03-01T02:47:59;-2.80;99.90
15636;DHT22;7917;50.818;6.972;2023-03-01T02:50:51;-2.80;99.90
15636;DHT22;7917;50.818;6.972;2023-03-01T02:53:23;-2.90;99.90
15636;DHT22;7917;50.818;6.972;2023-03-01T02:55:55;-2.90;99.90
15636;DHT22;7917;50.818;6.972;2023-03-01T02:58:22;-2.90;99.90
15636;DHT22;7917;50.818;6.972;2023-03-01T03:00:49;-3.00;99.90
15636;DHT22;7917;50.818;6.972;2023-03-01T03:03:22;-2.90;99.90
15636;DHT22;7917;50.818;6.972;2023-03-01T03:05:48;-2.90;99.90
15636;DHT22;7917;50.818;6.972;2023-03-01T03:08:15;-2.90;99.90
15636;DHT22;7917;50.818;6.972;2023-03-01T03:10:49;-2.90;99.90
15636;DHT22;7917;50.818;6.972;2023-03-01T03:13:16;-2.90;99.90
15636;DHT22;7917;50.818;6.972;2023-03-01T03:15:45;-3.00;99.90
15636;DHT22;7917;50.818;6.972;2023-03-01T03:18:14;-3.00;99.90
15636;DHT22;7917;50.818;6.972;2023-03-01T03:20:43;-3.10;99.90
15636;DHT22;7917;50.818;6.972;2023-03-01T03:23:10;-3.10;99.90
15636;DHT22;7917;50.818;6.972;2023-03-01T03:25:36;-3.10;99.90
15636;DHT22;7917;50.818;6.972;2023-03-01T03:28:04;-3.10;99.90
15636;DHT22;7917;50.818;6.972;2023-03-01T03:30:37;-3.20;99.90
15636;DHT22;7917;50.818;6.972;2023-03-01T03:33:05;-3.20;99.90
15636;DHT22;7917;50.818;6.972;2023-03-01T03:35:37;-3.30;99.90
15636;DHT22;7917;50.818;6.972;2023-03-01T03:38:06;-3.30;99.90
15636;DHT22;7917;50.818;6.972;2023-03-01T03:40:36;-3.30;99.90
15636;DHT22;7917;50.818;6.972;2023-03-01T03:43:04;-3.30;99.90
15636;DHT22;7917;50.818;6.972;2023-03-01T03:45:32;-3.30;99.90
15636;DHT22;7917;50.818;6.972;2023-03-01T03:47:59;-3.40;99.90
15636;DHT22;7917;50.818;6.972;2023-03-01T03:50:26;-3.40;99.90
15636;DHT22;7917;50.818;6.972;2023-03-01T03:52:53;-3.40;99.90
15636;DHT22;7917;50.818;6.972;2023-03-01T03:55:20;-3.40;99.90
15636;DHT22;7917;50.818;6.972;2023-03-01T03:57:47;-3.40;99.90
15636;DHT22;7917;50.818;6.972;2023-03-01T04:00:19;-3.40;99.90
15636;DHT22;7917;50.818;6.972;2023-03-01T04:02:47;-3.50;99.90
15636;DHT22;7917;50.818;6.972;2023-03-01T04:05:17;-3.50;99.90
15636;DHT22;7917;50.818;6.972;2023-03-01T04:07:45;-3.50;99.90
15636;DHT22;7917;50.818;6.972;2023-03-01T04:10:14;-3.60;99.90
15636;DHT22;7917;50.818;6.972;2023-03-01T04:12:43;-3.60;99.90
15636;DHT22;7917;50.818;6.972;2023-03-01T04:15:11;-3.50;99.90
15636;DHT22;7917;50.818;6.972;2023-03-01T04:17:45;-3.60;99.90
15636;DHT22;7917;50.818;6.972;2023-03-01T04:20:13;-3.40;99.90
15636;DHT22;7917;50.818;6.972;2023-03-01T04:22:46;-3.50;99.90
15636;DHT22;7917;50.818;6.972;2023-03-01T04:25:15;-3.50;99.90
15636;DHT22;7917;50.818;6.972;2023-03-01T04:27:42;-3.60;99.90
15636;DHT22;7917;50.818;6.972;2023-03-01T04:30:10;-3.60;99.90
15636;DHT22;7917;50.818;6.972;2023-03-01T04:32:37;-3.70;99.90
15636;DHT22;7917;50.818;6.972;2023-03-01T04:35:04;-3.70;99.90
15636;DHT22;7917;50.818;6.972;2023-03-01T04:37:30;-3.70;99.90
15636;DHT22;7917;50.818;6.972;2023-03-01T04:39:57;-3.80;99.90
15636;DHT22;7917;50.818;6.972;2023-03-01T04:42:24;-3.70;99.90
15636;DHT22;7917;50.818;6.972;2023-03-01T04:44:54;-3.70;99.90
15636;DHT22;7917;50.818;6.972;2023-03-01T04:47:22;-3.70;99.90
15636;DHT22;7917;50.818;6.972;2023-03-01T04:49:49;-3.80;99.90
15636;DHT22;7917;50.818;6.972;2023-03-01T04:52:15;-3.80;99.90
15636;DHT22;7917;50.818;6.972;2023-03-01T04:54:42;-3.80;99.90
15636;DHT22;7917;50.818;6.972;2023-03-01T04:57:09;-3.80;99.90
15636;DHT22;7917;50.818;6.972;2023-03-01T04:59:36;-3.70;99.90
15636;DHT22;7917;50.818;6.972;2023-03-01T05:02:03;-3.80;99.90
15636;DHT22;7917;50.818;6.972;2023-03-01T05:04:30;-3.80;99.90
15636;DHT22;7917;50.818;6.972;2023-03-01T05:06:57;-3.80;99.90
15636;DHT22;7917;50.818;6.972;2023-03-01T05:09:24;-3.90;99.90
15636;DHT22;7917;50.818;6.972;2023-03-01T05:11:56;-3.90;99.90
15636;DHT22;7917;50.818;6.972;2023-03-01T05:14:22;-3.90;99.90
15636;DHT22;7917;50.818;6.972;2023-03-01T05:16:52;-4.00;99.90
15636;DHT22;7917;50.818;6.972;2023-03-01T05:19:18;-4.10;99.90
15636;DHT22;7917;50.818;6.972;2023-03-01T05:21:48;-4.00;99.90
15636;DHT22;7917;50.818;6.972;2023-03-01T05:24:33;-4.00;99.90
15636;DHT22;7917;50.818;6.972;2023-03-01T05:27:00;-4.00;99.90
15636;DHT22;7917;50.818;6.972;2023-03-01T05:29:28;-4.00;99.90
15636;DHT22;7917;50.818;6.972;2023-03-01T05:31:58;-4.10;99.90
15636;DHT22;7917;50.818;6.972;2023-03-01T05:34:26;-4.10;99.90
15636;DHT22;7917;50.818;6.972;2023-03-01T05:36:53;-4.10;99.90
15636;DHT22;7917;50.818;6.972;2023-03-01T05:39:20;-4.10;99.90
15636;DHT22;7917;50.818;6.972;2023-03-01T05:41:47;-4.20;99.90
15636;DHT22;7917;50.818;6.972;2023-03-01T05:44:14;-4.20;99.90
15636;DHT22;7917;50.818;6.972;2023-03-01T05:46:41;-4.20;99.90
15636;DHT22;7917;50.818;6.972;2023-03-01T05:49:09;-4.20;99.90
15636;DHT22;7917;50.818;6.972;2023-03-01T05:51:35;-4.20;99.90
15636;DHT22;7917;50.818;6.972;2023-03-01T05:54:02;-4.30;99.90
15636;DHT22;7917;50.818;6.972;2023-03-01T05:56:33;-4.30;99.90
15636;DHT22;7917;50.818;6.972;2023-03-01T05:59:00;-4.30;99.90
15636;DHT22;7917;50.818;6.972;2023-03-01T06:01:26;-4.30;99.90
15636;DHT22;7917;50.818;6.972;2023-03-01T06:03:53;-4.30;99.90
15636;DHT22;7917;50.818;6.972;2023-03-01T06:06:20;-4.30;99.90
15636;DHT22;7917;50.818;6.972;2023-03-01T06:08:47;-4.30;99.90
15636;DHT22;7917;50.818;6.972;2023-03-01T06:11:13;-4.30;99.90
15636;DHT22;7917;50.818;6.972;2023-03-01T06:13:41;-4.30;99.90
15636;DHT22;7917;50.818;6.972;2023-03-01T06:16:09;-4.30;99.90
15636;DHT22;7917;50.818;6.972;2023-03-01T06:18:41;-4.30;99.90
15636;DHT22;7917;50.818;6.972;2023-03-01T06:21:09;-4.30;99.90
15636;DHT22;7917;50.818;6.972;2023-03-01T06:23:36;-4.30;99.90
15636;DHT22;7917;50.818;6.972;2023-03-01T06:26:06;-4.30;99.90
15636;DHT22;7917;50.818;6.972;2023-03-01T06:28:35;-4.20;99.90
15636;DHT22;7917;50.818;6.972;2023-03-01T06:31:02;-4.20;99.90
15636;DHT22;7917;50.818;6.972;2023-03-01T06:33:29;-4.20;99.90
15636;DHT22;7917;50.818;6.972;2023-03-01T06:35:56;-4.20;99.90
15636;DHT22;7917;50.818;6.972;2023-03-01T06:38:22;-4.20;99.90
15636;DHT22;7917;50.818;6.972;2023-03-01T06:40:53;-4.20;99.90
15636;DHT22;7917;50.818;6.972;2023-03-01T06:43:21;-4.20;99.90
15636;DHT22;7917;50.818;6.972;2023-03-01T06:45:47;-4.10;99.90
15636;DHT22;7917;50.818;6.972;2023-03-01T06:48:14;-4.10;99.90
15636;DHT22;7917;50.818;6.972;2023-03-01T06:50:41;-4.10;99.90
15636;DHT22;7917;50.818;6.972;2023-03-01T06:53:07;-4.00;99.90
15636;DHT22;7917;50.818;6.972;2023-03-01T06:55:34;-3.90;99.90
15636;DHT22;7917;50.818;6.972;2023-03-01T06:58:04;-3.90;99.90
15636;DHT22;7917;50.818;6.972;2023-03-01T07:00:31;-3.90;99.90
15636;DHT22;7917;50.818;6.972;2023-03-01T07:02:59;-3.80;99.90
15636;DHT22;7917;50.818;6.972;2023-03-01T07:05:27;-3.80;99.90
15636;DHT22;7917;50.818;6.972;2023-03-01T07:07:54;-3.70;99.90
15636;DHT22;7917;50.818;6.972;2023-03-01T07:10:22;-3.50;99.90
15636;DHT22;7917;50.818;6.972;2023-03-01T07:12:54;-3.30;99.90
15636;DHT22;7917;50.818;6.972;2023-03-01T07:15:22;-3.10;99.90
15636;DHT22;7917;50.818;6.972;2023-03-01T07:17:48;-2.90;99.90
15636;DHT22;7917;50.818;6.972;2023-03-01T07:20:17;-2.80;99.90
15636;DHT22;7917;50.818;6.972;2023-03-01T07:22:43;-2.60;99.90
15636;DHT22;7917;50.818;6.972;2023-03-01T07:25:10;-2.40;99.90
15636;DHT22;7917;50.818;6.972;2023-03-01T07:27:37;-2.20;99.90
15636;DHT22;7917;50.818;6.972;2023-03-01T07:30:05;-2.00;99.90
15636;DHT22;7917;50.818;6.972;2023-03-01T07:32:32;-1.80;99.90
15636;DHT22;7917;50.818;6.972;2023-03-01T07:34:59;-1.60;99.90
15636;DHT22;7917;50.818;6.972;2023-03-01T07:37:26;-1.40;99.90
15636;DHT22;7917;50.818;6.972;2023-03-01T07:39:52;-1.40;99.90
15636;DHT22;7917;50.818;6.972;2023-03-01T07:42:19;-1.30;99.90
15636;DHT22;7917;50.818;6.972;2023-03-01T07:44:46;-1.20;99.90
15636;DHT22;7917;50.818;6.972;2023-03-01T07:47:12;-1.10;99.90
15636;DHT22;7917;50.818;6.972;2023-03-01T07:49:39;-0.90;99.90
15636;DHT22;7917;50.818;6.972;2023-03-01T07:52:06;-0.70;99.90
15636;DHT22;7917;50.818;6.972;2023-03-01T07:54:32;-0.50;99.90
15636;DHT22;7917;50.818;6.972;2023-03-01T07:57:01;-0.40;99.90
15636;DHT22;7917;50.818;6.972;2023-03-01T07:59:28;-0.20;99.90
15636;DHT22;7917;50.818;6.972;2023-03-01T08:01:56;0.00;99.90
15636;DHT22;7917;50.818;6.972;2023-03-01T08:04:23;0.10;99.90
15636;DHT22;7917;50.818;6.972;2023-03-01T08:06:54;0.10;99.90
15636;DHT22;7917;50.818;6.972;2023-03-01T08:09:21;0.30;99.90
15636;DHT22;7917;50.818;6.972;2023-03-01T08:11:48;0.50;99.90
15636;DHT22;7917;50.818;6.972;2023-03-01T08:14:15;0.50;99.90
15636;DHT22;7917;50.818;6.972;2023-03-01T08:16:41;0.60;99.90
15636;DHT22;7917;50.818;6.972;2023-03-01T08:19:09;0.60;99.90
15636;DHT22;7917;50.818;6.972;2023-03-01T08:21:36;0.70;99.90
15636;DHT22;7917;50.818;6.972;2023-03-01T08:24:05;0.70;99.90
15636;DHT22;7917;50.818;6.972;2023-03-01T08:26:33;0.80;99.90
15636;DHT22;7917;50.818;6.972;2023-03-01T08:29:00;0.90;99.90
15636;DHT22;7917;50.818;6.972;2023-03-01T08:31:28;1.00;99.90
15636;DHT22;7917;50.818;6.972;2023-03-01T08:33:58;1.10;99.90
15636;DHT22;7917;50.818;6.972;2023-03-01T08:36:45;1.30;99.90
15636;DHT22;7917;50.818;6.972;2023-03-01T08:39:28;1.40;99.90
15636;DHT22;7917;50.818;6.972;2023-03-01T08:41:55;1.70;99.90
15636;DHT22;7917;50.818;6.972;2023-03-01T08:44:21;1.80;99.90
15636;DHT22;7917;50.818;6.972;2023-03-01T08:46:48;1.90;99.90
15636;DHT22;7917;50.818;6.972;2023-03-01T08:49:18;1.90;99.90
15636;DHT22;7917;50.818;6.972;2023-03-01T08:51:46;2.00;99.90
15636;DHT22;7917;50.818;6.972;2023-03-01T08:54:14;2.00;99.90
15636;DHT22;7917;50.818;6.972;2023-03-01T08:56:42;2.10;99.90
15636;DHT22;7917;50.818;6.972;2023-03-01T08:59:11;2.20;99.90
15636;DHT22;7917;50.818;6.972;2023-03-01T09:01:38;2.30;99.90
15636;DHT22;7917;50.818;6.972;2023-03-01T09:04:06;2.30;99.90
15636;DHT22;7917;50.818;6.972;2023-03-01T09:06:33;2.10;99.90
15636;DHT22;7917;50.818;6.972;2023-03-01T09:09:00;2.10;99.90
15636;DHT22;7917;50.818;6.972;2023-03-01T09:11:28;2.10;99.90
15636;DHT22;7917;50.818;6.972;2023-03-01T09:13:56;2.10;99.90
15636;DHT22;7917;50.818;6.972;2023-03-01T09:16:23;2.30;99.90
15636;DHT22;7917;50.818;6.972;2023-03-01T09:18:51;2.40;99.90
15636;DHT22;7917;50.818;6.972;2023-03-01T09:21:21;2.50;99.90
15636;DHT22;7917;50.818;6.972;2023-03-01T09:23:48;2.50;99.90
15636;DHT22;7917;50.818;6.972;2023-03-01T09:26:17;2.60;99.90
15636;DHT22;7917;50.818;6.972;2023-03-01T09:28:45;2.60;99.90
15636;DHT22;7917;50.818;6.972;2023-03-01T09:31:12;2.60;99.90
15636;DHT22;7917;50.818;6.972;2023-03-01T09:33:40;2.50;99.90
15636;DHT22;7917;50.818;6.972;2023-03-01T09:36:09;2.50;99.90
15636;DHT22;7917;50.818;6.972;2023-03-01T09:38:37;2.60;99.90
15636;DHT22;7917;50.818;6.972;2023-03-01T09:41:10;2.60;99.90
15636;DHT22;7917;50.818;6.972;2023-03-01T09:43:44;2.70;99.90
15636;DHT22;7917;50.818;6.972;2023-03-01T09:46:14;2.80;99.90
15636;DHT22;7917;50.818;6.972;2023-03-01T09:48:43;3.00;99.90
15636;DHT22;7917;50.818;6.972;2023-03-01T09:51:16;3.00;99.90
15636;DHT22;7917;50.818;6.972;2023-03-01T09:53:43;3.00;99.90
15636;DHT22;7917;50.818;6.972;2023-03-01T09:56:16;3.10;99.90
15636;DHT22;7917;50.818;6.972;2023-03-01T09:58:50;3.10;99.90
15636;DHT22;7917;50.818;6.972;2023-03-01T10:01:28;3.10;99.90
15636;DHT22;7917;50.818;6.972;2023-03-01T10:04:24;3.00;99.90
15636;DHT22;7917;50.818;6.972;2023-03-01T10:07:02;3.20;99.90
15636;DHT22;7917;50.818;6.972;2023-03-01T10:09:34;3.20;99.90
15636;DHT22;7917;50.818;6.972;2023-03-01T10:12:04;3.40;99.90
15636;DHT22;7917;50.818;6.972;2023-03-01T10:14:37;3.50;99.90
15636;DHT22;7917;50.818;6.972;2023-03-01T10:17:12;3.60;99.90
15636;DHT22;7917;50.818;6.972;2023-03-01T10:19:46;3.60;99.90
15636;DHT22;7917;50.818;6.972;2023-03-01T10:22:18;3.50;99.90
15636;DHT22;7917;50.818;6.972;2023-03-01T10:24:47;3.60;99.90
15636;DHT22;7917;50.818;6.972;2023-03-01T10:27:22;3.70;99.90
15636;DHT22;7917;50.818;6.972;2023-03-01T10:29:56;3.80;99.90
15636;DHT22;7917;50.818;6.972;2023-03-01T10:32:26;3.80;99.90
15636;DHT22;7917;50.818;6.972;2023-03-01T10:34:53;3.90;99.90
15636;DHT22;7917;50.818;6.972;2023-03-01T10:37:24;3.90;99.90
15636;DHT22;7917;50.818;6.972;2023-03-01T10:39:58;3.90;99.90
15636;DHT22;7917;50.818;6.972;2023-03-01T10:42:29;4.20;99.90
15636;DHT22;7917;50.818;6.972;2023-03-01T10:44:56;4.30;99.90
15636;DHT22;7917;50.818;6.972;2023-03-01T10:47:25;4.60;99.90
15636;DHT22;7917;50.818;6.972;2023-03-01T10:49:58;4.60;99.90
15636;DHT22;7917;50.818;6.972;2023-03-01T10:52:28;4.80;99.90
15636;DHT22;7917;50.818;6.972;2023-03-01T10:54:56;5.00;99.90
15636;DHT22;7917;50.818;6.972;2023-03-01T10:57:38;5.10;99.90
15636;DHT22;7917;50.818;6.972;2023-03-01T11:00:22;5.20;99.90
15636;DHT22;7917;50.818;6.972;2023-03-01T11:03:11;5.30;99.90
15636;DHT22;7917;50.818;6.972;2023-03-01T11:05:54;5.50;99.90
15636;DHT22;7917;50.818;6.972;2023-03-01T11:08:32;5.70;99.90
15636;DHT22;7917;50.818;6.972;2023-03-01T11:11:16;5.80;99.90
15636;DHT22;7917;50.818;6.972;2023-03-01T11:13:54;6.00;99.90
15636;DHT22;7917;50.818;6.972;2023-03-01T11:16:27;6.10;99.90
15636;DHT22;7917;50.818;6.972;2023-03-01T11:19:04;6.20;99.90
15636;DHT22;7917;50.818;6.972;2023-03-01T11:21:34;6.10;99.90
15636;DHT22;7917;50.818;6.972;2023-03-01T11:24:03;6.10;99.90
15636;DHT22;7917;50.818;6.972;2023-03-01T11:26:40;6.30;99.90
15636;DHT22;7917;50.818;6.972;2023-03-01T11:29:13;6.30;99.90
15636;DHT22;7917;50.818;6.972;2023-03-01T11:31:47;6.30;99.90
15636;DHT22;7917;50.818;6.972;2023-03-01T11:34:20;6.40;99.90
15636;DHT22;7917;50.818;6.972;2023-03-01T11:36:53;6.50;99.90
15636;DHT22;7917;50.818;6.972;2023-03-01T11:39:26;6.50;99.90
15636;DHT22;7917;50.818;6.972;2023-03-01T11:42:02;6.50;99.90
15636;DHT22;7917;50.818;6.972;2023-03-01T11:44:34;6.60;99.90
15636;DHT22;7917;50.818;6.972;2023-03-01T11:47:28;6.60;99.90
15636;DHT22;7917;50.818;6.972;2023-03-01T11:50:11;6.50;99.90
15636;DHT22;7917;50.818;6.972;2023-03-01T11:52:48;6.60;99.90
15636;DHT22;7917;50.818;6.972;2023-03-01T11:55:42;6.70;99.90
15636;DHT22;7917;50.818;6.972;2023-03-01T11:58:32;6.80;99.90
15636;DHT22;7917;50.818;6.972;2023-03-01T12:01:11;6.90;99.90
15636;DHT22;7917;50.818;6.972;2023-03-01T12:04:01;7.10;99.90
15636;DHT22;7917;50.818;6.972;2023-03-01T12:06:49;7.00;99.90
15636;DHT22;7917;50.818;6.972;2023-03-01T12:12:30;7.10;99.90
15636;DHT22;7917;50.818;6.972;2023-03-01T12:15:24;7.10;99.90
15636;DHT22;7917;50.818;6.972;2023-03-01T12:18:17;7.10;99.90
15636;DHT22;7917;50.818;6.972;2023-03-01T12:21:49;7.40;99.90
15636;DHT22;7917;50.818;6.972;2023-03-01T12:24:26;7.50;99.90
15636;DHT22;7917;50.818;6.972;2023-03-01T12:27:08;7.70;99.90
15636;DHT22;7917;50.818;6.972;2023-03-01T12:29:41;7.70;99.90
15636;DHT22;7917;50.818;6.972;2023-03-01T12:32:26;7.70;99.90
15636;DHT22;7917;50.818;6.972;2023-03-01T12:35:06;7.70;99.90
15636;DHT22;7917;50.818;6.972;2023-03-01T12:37:46;7.70;99.90
15636;DHT22;7917;50.818;6.972;2023-03-01T12:40:33;7.70;99.90
15636;DHT22;7917;50.818;6.972;2023-03-01T12:43:22;7.70;99.90
15636;DHT22;7917;50.818;6.972;2023-03-01T12:46:06;7.90;99.90
15636;DHT22;7917;50.818;6.972;2023-03-01T12:48:46;8.00;99.90
15636;DHT22;7917;50.818;6.972;2023-03-01T12:51:16;8.10;99.90
15636;DHT22;7917;50.818;6.972;2023-03-01T12:53:46;8.10;99.90
15636;DHT22;7917;50.818;6.972;2023-03-01T12:56:28;8.20;99.90
15636;DHT22;7917;50.818;6.972;2023-03-01T12:59:02;8.30;99.90
15636;DHT22;7917;50.818;6.972;2023-03-01T13:01:39;8.40;99.90
15636;DHT22;7917;50.818;6.972;2023-03-01T13:04:15;8.60;99.90
15636;DHT22;7917;50.818;6.972;2023-03-01T13:06:53;8.80;99.90
15636;DHT22;7917;50.818;6.972;2023-03-01T13:09:27;8.70;99.90
15636;DHT22;7917;50.818;6.972;2023-03-01T13:11:56;8.80;99.90
15636;DHT22;7917;50.818;6.972;2023-03-01T13:14:36;8.70;99.90
15636;DHT22;7917;50.818;6.972;2023-03-01T13:17:48;8.80;99.90
15636;DHT22;7917;50.818;6.972;2023-03-01T13:20:31;8.80;99.90
15636;DHT22;7917;50.818;6.972;2023-03-01T13:23:04;9.00;99.90
15636;DHT22;7917;50.818;6.972;2023-03-01T13:25:32;9.00;99.90
15636;DHT22;7917;50.818;6.972;2023-03-01T13:31:00;9.10;99.90
15636;DHT22;7917;50.818;6.972;2023-03-01T13:33:40;9.10;99.90
15636;DHT22;7917;50.818;6.972;2023-03-01T13:36:08;9.10;99.90
15636;DHT22;7917;50.818;6.972;2023-03-01T13:38:44;9.20;99.90
15636;DHT22;7917;50.818;6.972;2023-03-01T13:41:12;9.30;99.90
15636;DHT22;7917;50.818;6.972;2023-03-01T13:43:42;9.40;99.90
15636;DHT22;7917;50.818;6.972;2023-03-01T13:46:14;9.40;99.90
15636;DHT22;7917;50.818;6.972;2023-03-01T13:48:44;9.60;99.90
15636;DHT22;7917;50.818;6.972;2023-03-01T13:54:15;9.60;99.90
15636;DHT22;7917;50.818;6.972;2023-03-01T13:57:17;9.70;99.90
15636;DHT22;7917;50.818;6.972;2023-03-01T13:59:50;9.60;99.90
15636;DHT22;7917;50.818;6.972;2023-03-01T14:02:23;9.70;99.90
15636;DHT22;7917;50.818;6.972;2023-03-01T14:04:56;9.80;99.90
15636;DHT22;7917;50.818;6.972;2023-03-01T14:07:32;9.70;99.90
15636;DHT22;7917;50.818;6.972;2023-03-01T14:10:02;9.80;99.90
15636;DHT22;7917;50.818;6.972;2023-03-01T14:12:40;9.80;99.90
15636;DHT22;7917;50.818;6.972;2023-03-01T14:15:17;9.90;99.90
15636;DHT22;7917;50.818;6.972;2023-03-01T14:17:51;9.90;99.90
15636;DHT22;7917;50.818;6.972;2023-03-01T14:20:22;9.90;99.90
15636;DHT22;7917;50.818;6.972;2023-03-01T14:22:51;10.00;99.90
15636;DHT22;7917;50.818;6.972;2023-03-01T14:25:25;9.90;99.90
15636;DHT22;7917;50.818;6.972;2023-03-01T14:27:58;9.90;99.90
15636;DHT22;7917;50.818;6.972;2023-03-01T14:30:27;9.90;99.90
15636;DHT22;7917;50.818;6.972;2023-03-01T14:32:59;9.90;99.90
15636;DHT22;7917;50.818;6.972;2023-03-01T14:38:47;9.80;99.90
15636;DHT22;7917;50.818;6.972;2023-03-01T14:41:16;9.90;99.90
15636;DHT22;7917;50.818;6.972;2023-03-01T14:43:49;9.90;99.90
15636;DHT22;7917;50.818;6.972;2023-03-01T14:46:19;10.00;99.90
15636;DHT22;7917;50.818;6.972;2023-03-01T14:48:50;10.00;99.90
15636;DHT22;7917;50.818;6.972;2023-03-01T14:51:17;10.00;99.90
15636;DHT22;7917;50.818;6.972;2023-03-01T14:53:43;10.20;99.90
15636;DHT22;7917;50.818;6.972;2023-03-01T14:56:16;10.50;99.90
15636;DHT22;7917;50.818;6.972;2023-03-01T14:58:44;10.90;99.90
15636;DHT22;7917;50.818;6.972;2023-03-01T15:01:16;11.20;99.90
15636;DHT22;7917;50.818;6.972;2023-03-01T15:03:45;11.80;99.90
15636;DHT22;7917;50.818;6.972;2023-03-01T15:06:15;12.20;99.90
15636;DHT22;7917;50.818;6.972;2023-03-01T15:08:46;12.40;99.90
15636;DHT22;7917;50.818;6.972;2023-03-01T15:11:20;12.60;99.90
15636;DHT22;7917;50.818;6.972;2023-03-01T15:13:49;12.70;99.90
15636;DHT22;7917;50.818;6.972;2023-03-01T15:16:18;12.50;99.90
15636;DHT22;7917;50.818;6.972;2023-03-01T15:18:50;12.80;99.90
15636;DHT22;7917;50.818;6.972;2023-03-01T15:21:21;13.40;99.90
15636;DHT22;7917;50.818;6.972;2023-03-01T15:23:52;13.80;99.90
15636;DHT22;7917;50.818;6.972;2023-03-01T15:26:27;13.80;99.90
15636;DHT22;7917;50.818;6.972;2023-03-01T15:28:56;13.00;99.90
15636;DHT22;7917;50.818;6.972;2023-03-01T15:31:25;12.80;99.90
15636;DHT22;7917;50.818;6.972;2023-03-01T15:34:08;12.40;99.90
15636;DHT22;7917;50.818;6.972;2023-03-01T15:36:41;11.30;99.90
15636;DHT22;7917;50.818;6.972;2023-03-01T15:42:06;10.50;99.90
15636;DHT22;7917;50.818;6.972;2023-03-01T15:44:36;9.80;99.90
15636;DHT22;7917;50.818;6.972;2023-03-01T15:47:07;9.40;99.90
15636;DHT22;7917;50.818;6.972;2023-03-01T15:49:38;9.30;99.90
15636;DHT22;7917;50.818;6.972;2023-03-01T15:52:12;9.10;99.90
15636;DHT22;7917;50.818;6.972;2023-03-01T15:54:40;9.00;99.90
15636;DHT22;7917;50.818;6.972;2023-03-01T15:57:13;8.80;99.90
15636;DHT22;7917;50.818;6.972;2023-03-01T15:59:40;8.70;99.90
15636;DHT22;7917;50.818;6.972;2023-03-01T16:02:10;8.50;99.90
15636;DHT22;7917;50.818;6.972;2023-03-01T16:04:38;8.50;99.90
15636;DHT22;7917;50.818;6.972;2023-03-01T16:07:07;8.30;99.90
15636;DHT22;7917;50.818;6.972;2023-03-01T16:09:35;8.20;99.90
15636;DHT22;7917;50.818;6.972;2023-03-01T16:12:03;8.30;99.90
15636;DHT22;7917;50.818;6.972;2023-03-01T16:14:32;8.10;99.90
15636;DHT22;7917;50.818;6.972;2023-03-01T16:17:01;7.80;99.90
15636;DHT22;7917;50.818;6.972;2023-03-01T16:19:28;7.60;99.90
15636;DHT22;7917;50.818;6.972;2023-03-01T16:21:57;7.50;99.90
15636;DHT22;7917;50.818;6.972;2023-03-01T16:24:24;7.50;99.90
15636;DHT22;7917;50.818;6.972;2023-03-01T16:26:51;7.40;99.90
15636;DHT22;7917;50.818;6.972;2023-03-01T16:29:18;7.20;99.90
15636;DHT22;7917;50.818;6.972;2023-03-01T16:31:44;7.20;99.90
15636;DHT22;7917;50.818;6.972;2023-03-01T16:34:11;7.10;99.90